Time;durP1;ratioP1;P1;durP2;ratioP2;P2;SDS_P1;SDS_P2;PMS_P1;PMS_P2;Temp;Humidity;BMP_temperature;BMP_pressure;BME280_temperature;BME280_humidity;BME280_pressure;Samples;Min_cycle;Max_cycle;Signal;HPM_P1;HPM_P2
2022/01/05 00:01:20;;;;;;;53.58;27.13;;;;;;;2.53;74.59;94579.59;5014180;28;20037;-81
2022/01/05 00:03:45;;;;;;;57.72;28.10;;;;;;;3.64;74.06;94672.94;5016267;28;20030;-81
2022/01/05 00:06:11;;;;;;;54.25;27.63;;;;;;;2.70;74.56;94570.72;5014485;28;20038;-81
2022/01/05 00:08:36;;;;;;;60.28;26.60;;;;;;;2.71;74.45;94564.44;5015100;28;20099;-81
2022/01/05 00:11:02;;;;;;;59.55;26.48;;;;;;;3.48;74.07;94639.69;5013692;28;20057;-81
2022/01/05 00:13:27;;;;;;;51.38;26.88;;;;;;;3.00;73.88;94564.31;5014075;28;20033;-81
2022/01/05 00:15:53;;;;;;;63.15;29.25;;;;;;;3.69;73.91;94687.94;5015322;28;20040;-81
2022/01/05 00:18:18;;;;;;;52.95;26.40;;;;;;;3.70;74.04;94671.16;5015321;28;20034;-81
2022/01/05 00:20:44;;;;;;;63.33;26.60;;;;;;;2.63;74.78;94564.84;5013516;28;20516;-81
2022/01/05 00:23:10;;;;;;;57.10;27.40;;;;;;;3.27;74.96;94666.66;5014912;28;20088;-81
2022/01/05 00:25:36;;;;;;;53.78;26.85;;;;;;;2.66;75.39;94568.81;5014472;28;20033;-81
2022/01/05 00:28:01;;;;;;;57.50;26.38;;;;;;;3.13;75.91;94675.88;5012981;28;20029;-81
2022/01/05 00:30:27;;;;;;;61.63;27.02;;;;;;;2.85;75.14;94585.06;5013951;28;20053;-81
2022/01/05 00:32:52;;;;;;;64.40;26.48;;;;;;;2.83;74.55;94594.97;5012682;28;20566;-81
2022/01/05 00:35:18;;;;;;;59.13;27.45;;;;;;;2.65;74.79;94536.59;5014645;28;20042;-81
2022/01/05 00:37:44;;;;;;;70.25;27.45;;;;;;;2.87;75.23;94609.19;5015741;28;20037;-81
2022/01/05 00:40:10;;;;;;;56.03;27.98;;;;;;;2.21;74.98;94516.56;5015640;28;20050;-81
2022/01/05 00:42:36;;;;;;;62.03;28.27;;;;;;;3.21;74.95;94641.38;5016421;28;20145;-80
2022/01/05 00:45:03;;;;;;;62.38;28.40;;;;;;;2.62;74.96;94586.03;5016754;28;20030;-81
2022/01/05 00:47:28;;;;;;;54.00;28.00;;;;;;;2.28;75.63;94538.13;5016473;28;20052;-81
2022/01/05 00:49:54;;;;;;;53.00;27.65;;;;;;;2.99;75.27;94623.78;5014986;28;21654;-81
2022/01/05 00:52:20;;;;;;;61.53;29.33;;;;;;;3.44;74.91;94659.53;5016371;28;20062;-81
2022/01/05 00:54:46;;;;;;;57.03;27.10;;;;;;;3.00;74.78;94601.78;5016771;28;20030;-80
2022/01/05 00:57:11;;;;;;;65.75;28.52;;;;;;;2.97;75.11;94604.91;5016803;28;20057;-81
2022/01/05 00:59:37;;;;;;;57.95;27.02;;;;;;;2.97;75.07;94604.91;5014542;28;20042;-81
2022/01/05 01:02:03;;;;;;;64.70;27.95;;;;;;;3.45;74.27;94661.91;5014170;28;20472;-80
2022/01/05 01:04:28;;;;;;;54.90;29.00;;;;;;;2.52;74.85;94515.97;5020997;28;20048;-81
2022/01/05 01:06:54;;;;;;;61.28;26.77;;;;;;;3.39;74.46;94651.59;5016927;28;20036;-81
2022/01/05 01:09:19;;;;;;;60.42;27.65;;;;;;;2.89;74.87;94615.78;5014203;28;20136;-81
2022/01/05 01:11:45;;;;;;;52.08;26.98;;;;;;;2.64;75.26;94581.34;5016643;28;20420;-80
2022/01/05 01:14:10;;;;;;;56.67;27.90;;;;;;;2.37;74.57;94507.91;5015019;28;20029;-81
2022/01/05 01:16:36;;;;;;;56.47;27.05;;;;;;;2.15;74.28;94462.56;5016966;28;20048;-81
2022/01/05 01:19:02;;;;;;;58.92;26.77;;;;;;;2.78;74.58;94561.66;5016396;28;20048;-81
2022/01/05 01:21:28;;;;;;;59.03;27.38;;;;;;;3.27;74.00;94628.13;5012860;28;20107;-81
2022/01/05 01:23:56;;;;;;;58.40;26.58;;;;;;;2.98;73.78;94569.81;5012564;28;20034;-81
2022/01/05 01:26:24;;;;;;;62.53;26.88;;;;;;;3.38;74.00;94652.63;5014775;28;20044;-81
2022/01/05 01:28:50;;;;;;;50.95;25.73;;;;;;;2.57;74.11;94517.91;5020556;28;20042;-81
2022/01/05 01:31:16;;;;;;;57.63;27.90;;;;;;;2.56;73.89;94521.53;5020097;28;20053;-81
2022/01/05 01:33:41;;;;;;;65.93;27.77;;;;;;;2.33;73.78;94470.16;5012888;28;20057;-81
2022/01/05 01:36:07;;;;;;;58.67;29.10;;;;;;;2.82;73.09;94533.19;5014319;28;20129;-81
2022/01/05 01:38:32;;;;;;;55.40;27.88;;;;;;;2.68;74.83;94585.06;5013540;28;20029;-80
2022/01/05 01:40:58;;;;;;;67.50;28.17;;;;;;;2.20;75.18;94505.31;5016850;28;20504;-81
2022/01/05 01:43:23;;;;;;;53.40;26.10;;;;;;;2.45;74.55;94519.78;5012674;28;20034;-80
2022/01/05 01:45:49;;;;;;;55.08;27.17;;;;;;;2.74;74.50;94568.41;5014154;28;20037;-81
2022/01/05 01:48:14;;;;;;;60.47;27.77;;;;;;;3.40;74.14;94633.03;5013658;28;20034;-81
2022/01/05 01:50:58;;;;;;;59.94;27.80;;;;;;;2.90;74.59;94587.78;2573700;28;10003625;-81
2022/01/05 01:53:23;;;;;;;57.50;28.85;;;;;;;2.52;75.14;94560.47;3283654;28;10001245;-81
2022/01/05 01:55:50;;;;;;;59.20;27.42;;;;;;;3.03;74.75;94611.00;5013135;28;20037;-81
2022/01/05 01:58:22;;;;;;;56.50;26.63;;;;;;;3.18;74.74;94629.56;5014343;28;20056;-81
2022/01/05 02:00:48;;;;;;;63.42;26.98;;;;;;;2.10;75.03;94478.19;5014153;28;20535;-80
2022/01/05 02:03:14;;;;;;;53.53;26.65;;;;;;;1.83;75.63;94464.94;5012614;28;20045;-80
2022/01/05 02:05:40;;;;;;;57.50;26.15;;;;;;;3.08;75.18;94629.41;5013567;28;20511;-81
2022/01/05 02:08:06;;;;;;;49.03;26.13;;;;;;;1.82;75.28;94455.50;5014065;28;20157;-81
2022/01/05 02:10:31;;;;;;;56.55;25.73;;;;;;;2.63;75.92;94600.69;5013606;28;20036;-81
2022/01/05 02:12:57;;;;;;;53.45;26.40;;;;;;;2.86;75.20;94599.75;5014183;28;20041;-81
2022/01/05 02:15:23;;;;;;;52.67;27.38;;;;;;;2.01;74.72;94485.63;5013385;28;20078;-81
2022/01/05 02:17:56;;;;;;;51.63;27.52;;;;;;;1.66;75.74;94464.13;5012026;28;20539;-81
2022/01/05 02:20:26;;;;;;;48.95;27.30;;;;;;;2.37;76.23;94575.13;5015745;28;20065;-79
2022/01/05 02:22:53;;;;;;;59.35;26.45;;;;;;;2.97;75.43;94619.84;5018551;28;20030;-79
2022/01/05 02:25:19;;;;;;;49.00;25.15;;;;;;;2.45;75.89;94572.13;5016727;28;20041;-79
2022/01/05 02:27:46;;;;;;;52.63;25.67;;;;;;;2.99;75.43;94636.09;5016964;28;20033;-79
2022/01/05 02:30:17;;;;;;;57.78;26.48;;;;;;;2.86;74.94;94590.06;5018533;28;20034;-79
2022/01/05 02:32:43;;;;;;;54.45;27.52;;;;;;;2.05;75.02;94451.94;5017661;28;20535;-79
2022/01/05 02:35:10;;;;;;;55.17;27.42;;;;;;;3.09;75.02;94612.66;5016215;28;20054;-79
2022/01/05 02:37:43;;;;;;;57.40;27.23;;;;;;;2.63;74.56;94532.63;5033710;28;20489;-80
2022/01/05 02:40:12;;;;;;;54.83;27.25;;;;;;;2.95;74.56;94579.97;5016866;28;20045;-80
2022/01/05 02:42:38;;;;;;;59.78;26.40;;;;;;;2.26;74.20;94486.03;5000476;28;20034;-79
2022/01/05 02:45:04;;;;;;;59.35;26.20;;;;;;;2.84;74.12;94571.16;5016580;28;20585;-79
2022/01/05 02:47:29;;;;;;;52.78;25.27;;;;;;;2.87;74.07;94559.44;5016791;28;20076;-79
2022/01/05 02:49:59;;;;;;;61.25;27.15;;;;;;;3.02;74.64;94602.34;5016458;28;20106;-80
2022/01/05 02:52:24;;;;;;;52.88;26.15;;;;;;;2.76;74.00;94544.59;5016292;28;20112;-81
2022/01/05 02:54:50;;;;;;;54.95;25.80;;;;;;;3.16;74.19;94620.34;5017380;28;20049;-81
2022/01/05 02:57:16;;;;;;;50.30;24.67;;;;;;;2.23;74.17;94468.19;5017532;28;20041;-81
2022/01/05 02:59:41;;;;;;;52.05;24.05;;;;;;;2.61;73.93;94500.66;5015442;28;20025;-81
2022/01/05 03:02:07;;;;;;;54.13;23.73;;;;;;;2.60;74.15;94527.88;5014765;28;20045;-81
2022/01/05 03:04:33;;;;;;;51.15;23.77;;;;;;;2.04;74.72;94448.53;5017010;28;20021;-81
2022/01/05 03:06:58;;;;;;;46.88;23.58;;;;;;;2.46;74.56;94495.19;5016137;28;20037;-81
2022/01/05 03:09:24;;;;;;;49.60;23.55;;;;;;;2.34;74.45;94487.47;5014833;28;20030;-81
2022/01/05 03:11:49;;;;;;;50.88;23.10;;;;;;;2.43;73.84;94498.31;5015603;28;20466;-81
2022/01/05 03:14:15;;;;;;;47.10;23.20;;;;;;;2.45;74.21;94491.78;5016244;28;20026;-81
2022/01/05 03:16:40;;;;;;;53.55;23.52;;;;;;;2.84;74.25;94565.94;5015597;28;20041;-81
2022/01/05 03:19:07;;;;;;;61.45;28.05;;;;;;;2.70;74.03;94534.06;5016250;28;20389;-81
2022/01/05 03:21:33;;;;;;;69.55;28.13;;;;;;;2.99;74.04;94573.22;5016014;28;20116;-82
2022/01/05 03:23:58;;;;;;;51.00;25.92;;;;;;;2.12;74.12;94444.72;5013901;28;20080;-81
2022/01/05 03:26:24;;;;;;;68.07;25.95;;;;;;;3.09;74.11;94589.09;5015730;28;20119;-81
2022/01/05 03:28:49;;;;;;;57.67;27.27;;;;;;;2.23;73.97;94467.38;5030559;28;20037;-81
2022/01/05 03:31:14;;;;;;;66.47;29.40;;;;;;;2.20;73.90;94466.06;5014868;28;20104;-81
2022/01/05 03:33:40;;;;;;;62.78;28.88;;;;;;;2.42;73.89;94508.00;5029623;28;20064;-81
2022/01/05 03:36:06;;;;;;;83.70;36.67;;;;;;;2.38;74.17;94493.78;5015326;28;20046;-81
2022/01/05 03:38:31;;;;;;;90.93;40.70;;;;;;;2.40;74.31;94494.34;5014258;28;20172;-81
2022/01/05 03:40:57;;;;;;;94.25;41.72;;;;;;;3.03;73.72;94587.44;5015160;28;20049;-82
2022/01/05 03:43:23;;;;;;;113.70;44.78;;;;;;;2.09;73.74;94443.38;5015650;28;20037;-81
2022/01/05 03:45:49;;;;;;;100.30;45.80;;;;;;;2.25;74.13;94463.50;5015555;28;20032;-81
2022/01/05 03:48:16;;;;;;;107.47;46.75;;;;;;;1.82;75.30;94468.56;5015815;28;20109;-81
2022/01/05 03:50:59;;;;;;;104.15;47.17;;;;;;;1.51;75.73;94452.38;2594016;28;10003897;-81
2022/01/05 03:53:25;;;;;;;103.55;45.42;;;;;;;1.81;76.06;94472.22;3285314;28;10001188;-81
2022/01/05 03:55:50;;;;;;;99.80;43.50;;;;;;;2.73;75.57;94590.41;5012975;28;20442;-82
2022/01/05 03:58:16;;;;;;;74.90;35.40;;;;;;;1.88;76.37;94504.22;5014794;28;20088;-81
2022/01/05 04:00:50;;;;;;;68.90;31.08;;;;;;;2.55;76.94;94586.19;5015531;28;20069;-81
2022/01/05 04:03:16;;;;;;;68.13;32.63;;;;;;;2.66;76.20;94590.56;5015076;28;20077;-81
2022/01/05 04:05:42;;;;;;;61.28;30.42;;;;;;;1.72;76.19;94457.94;5013576;28;20108;-81
2022/01/05 04:08:08;;;;;;;68.47;31.55;;;;;;;1.75;76.40;94467.94;5015185;28;20097;-81
2022/01/05 04:10:34;;;;;;;65.22;29.92;;;;;;;1.91;76.21;94475.78;5015042;28;20026;-81
2022/01/05 04:13:00;;;;;;;67.95;32.38;;;;;;;2.26;76.11;94553.25;5015363;28;20049;-81
2022/01/05 04:15:26;;;;;;;65.82;30.98;;;;;;;2.52;76.18;94573.56;5013543;28;20050;-81
2022/01/05 04:17:51;;;;;;;68.53;32.17;;;;;;;1.96;75.90;94476.91;5013782;28;20615;-82
2022/01/05 04:20:17;;;;;;;73.53;34.25;;;;;;;2.31;75.80;94527.16;5015580;28;20045;-81
2022/01/05 04:22:43;;;;;;;82.25;36.67;;;;;;;2.03;76.18;94517.56;5015582;28;20481;-81
2022/01/05 04:25:09;;;;;;;88.60;40.30;;;;;;;1.61;75.89;94430.81;5014552;28;20030;-81
2022/01/05 04:27:35;;;;;;;88.13;39.78;;;;;;;1.97;75.68;94487.13;5014975;28;20038;-81
2022/01/05 04:30:01;;;;;;;84.68;41.30;;;;;;;2.64;75.59;94555.97;5014781;28;20108;-82
2022/01/05 04:32:27;;;;;;;84.47;39.42;;;;;;;2.68;75.28;94554.44;5013563;28;20058;-82
2022/01/05 04:34:52;;;;;;;76.47;39.33;;;;;;;1.83;74.94;94430.94;5014874;28;20068;-81
2022/01/05 04:37:19;;;;;;;89.85;41.55;;;;;;;2.45;75.01;94523.19;5012638;28;20029;-81
2022/01/05 04:39:45;;;;;;;86.18;40.78;;;;;;;1.94;74.88;94440.53;5029016;28;20076;-81
2022/01/05 04:42:11;;;;;;;83.72;39.55;;;;;;;2.08;74.87;94459.31;5014919;28;20446;-81
2022/01/05 04:44:36;;;;;;;81.80;40.67;;;;;;;2.78;74.63;94576.56;5016457;28;20057;-81
2022/01/05 04:47:02;;;;;;;82.65;35.38;;;;;;;2.51;75.78;94547.66;5015716;28;20117;-81
2022/01/05 04:49:28;;;;;;;72.05;35.67;;;;;;;2.29;74.88;94506.47;5015713;28;20034;-81
2022/01/05 04:51:53;;;;;;;69.10;33.67;;;;;;;1.81;74.54;94427.78;5015369;28;20116;-81
2022/01/05 04:54:19;;;;;;;68.93;31.45;;;;;;;1.86;74.65;94423.41;5016478;28;20061;-81
2022/01/05 04:56:44;;;;;;;57.50;30.00;;;;;;;1.75;74.94;94462.72;5016591;28;20113;-81
2022/01/05 04:59:10;;;;;;;68.00;31.88;;;;;;;2.79;74.75;94572.94;5016296;28;20034;-82
2022/01/05 05:01:35;;;;;;;79.07;30.40;;;;;;;1.79;74.17;94429.81;5016001;28;20037;-82
2022/01/05 05:04:01;;;;;;;65.00;27.92;;;;;;;2.57;74.65;94552.72;5016864;28;20109;-81
2022/01/05 05:06:26;;;;;;;61.10;27.67;;;;;;;1.97;74.14;94458.38;5016666;28;20073;-81
2022/01/05 05:08:51;;;;;;;55.05;27.67;;;;;;;1.89;74.29;94433.41;5016368;28;20045;-81
2022/01/05 05:11:17;;;;;;;56.42;27.00;;;;;;;1.91;73.49;94443.59;5014962;28;20048;-82
2022/01/05 05:13:43;;;;;;;73.25;32.33;;;;;;;1.67;74.40;94427.28;5017312;28;20121;-82
2022/01/05 05:16:08;;;;;;;72.75;32.08;;;;;;;1.99;74.42;94485.06;5015451;28;20040;-81
2022/01/05 05:18:34;;;;;;;64.60;29.65;;;;;;;2.74;73.90;94610.31;5016365;28;20108;-81
2022/01/05 05:21:00;;;;;;;61.83;28.08;;;;;;;2.08;73.97;94504.56;5031245;28;20038;-81
2022/01/05 05:23:26;;;;;;;65.38;28.88;;;;;;;2.15;74.19;94509.63;5017369;28;20071;-81
2022/01/05 05:25:52;;;;;;;69.57;31.70;;;;;;;2.03;74.22;94494.03;5015094;28;20025;-81
2022/01/05 05:28:19;;;;;;;68.53;33.25;;;;;;;2.82;74.54;94625.63;5017381;28;20111;-81
2022/01/05 05:30:44;;;;;;;68.60;31.50;;;;;;;2.06;74.51;94506.63;4999032;28;20034;-82
2022/01/05 05:33:10;;;;;;;63.45;30.48;;;;;;;2.29;74.65;94539.69;5014903;28;20061;-82
2022/01/05 05:35:41;;;;;;;60.38;30.33;;;;;;;1.88;74.65;94497.19;5016319;28;20030;-81
2022/01/05 05:38:07;;;;;;;61.20;30.20;;;;;;;2.54;75.35;94623.06;5014851;28;20053;-81
2022/01/05 05:40:33;;;;;;;73.47;31.42;;;;;;;1.73;75.45;94506.59;5031651;28;20092;-82
2022/01/05 05:42:58;;;;;;;69.18;32.13;;;;;;;2.24;75.25;94558.72;5017792;28;20037;-82
2022/01/05 05:45:24;;;;;;;60.78;30.48;;;;;;;1.81;74.98;94496.53;5014800;28;20037;-82
2022/01/05 05:47:49;;;;;;;72.38;31.20;;;;;;;1.83;75.41;94535.53;5015246;28;20519;-82
2022/01/05 05:50:16;;;;;;;71.45;32.15;;;;;;;2.61;75.04;94615.84;5015261;28;20037;-82
2022/01/05 05:52:41;;;;;;;64.60;32.97;;;;;;;2.60;75.01;94616.88;5015235;28;20041;-82
2022/01/05 05:55:07;;;;;;;65.00;31.00;;;;;;;1.69;75.08;94508.06;5015726;28;20041;-83
2022/01/05 05:57:33;;;;;;;62.85;31.55;;;;;;;2.29;75.52;94620.78;5018795;28;20030;-83
2022/01/05 05:59:59;;;;;;;59.17;29.65;;;;;;;1.85;75.50;94512.53;5019418;28;20045;-82
2022/01/05 06:02:24;;;;;;;71.95;35.25;;;;;;;1.82;75.18;94536.56;5019919;28;20556;-84
2022/01/05 06:04:50;;;;;;;75.57;34.65;;;;;;;2.17;75.11;94560.69;5021214;28;20034;-83
2022/01/05 06:07:15;;;;;;;73.85;36.88;;;;;;;1.17;76.06;94456.69;5018486;28;20066;-83
2022/01/05 06:09:40;;;;;;;78.05;37.30;;;;;;;1.62;76.10;94502.97;5018159;28;20485;-83
2022/01/05 06:12:07;;;;;;;73.72;33.58;;;;;;;1.58;76.67;94503.69;5019210;28;20034;-83
2022/01/05 06:14:32;;;;;;;68.80;32.75;;;;;;;1.81;76.02;94541.00;5018149;28;20053;-82
2022/01/05 06:17:09;;;;;;;72.00;33.25;;;;;;;-1.42;75.78;94004.28;5017252;28;20045;-83
2022/01/05 06:19:35;;;;;;;81.90;34.08;;;;;;;0.31;75.82;94319.31;5018610;28;20030;-81
2022/01/05 06:22:00;;;;;;;74.00;35.45;;;;;;;1.95;76.44;94575.47;5016634;28;20112;-82
2022/01/05 06:24:29;;;;;;;76.60;36.97;;;;;;;-0.88;76.41;94133.16;5033370;28;20042;-82
2022/01/05 06:26:55;;;;;;;84.10;37.95;;;;;;;-0.76;76.14;94153.22;5017891;28;20029;-82
2022/01/05 06:29:21;;;;;;;79.43;37.50;;;;;;;0.11;76.10;94292.03;5016323;28;20067;-82
2022/01/05 06:31:47;;;;;;;69.63;35.40;;;;;;;0.77;76.46;94367.94;5015809;28;20105;-82
2022/01/05 06:34:13;;;;;;;78.43;37.72;;;;;;;2.07;76.19;94598.94;5032562;28;20045;-82
2022/01/05 06:36:38;;;;;;;80.65;39.28;;;;;;;-2.45;75.99;93887.94;5015485;28;20033;-81
2022/01/05 06:39:05;;;;;;;93.50;40.17;;;;;;;-2.21;76.21;93929.50;5017672;28;20070;-82
2022/01/05 06:41:31;;;;;;;82.63;39.35;;;;;;;-0.23;76.74;94237.13;5017868;28;20109;-81
2022/01/05 06:43:56;;;;;;;81.47;36.33;;;;;;;-2.46;76.83;93872.56;5019583;28;20512;-82
2022/01/05 06:46:22;;;;;;;91.22;38.17;;;;;;;-2.67;76.86;93841.97;5017669;28;20044;-81
2022/01/05 06:48:48;;;;;;;81.55;37.60;;;;;;;0.98;76.80;94403.09;5020069;28;20048;-82
2022/01/05 06:51:13;;;;;;;80.35;37.10;;;;;;;0.32;76.98;94322.72;5022869;28;20041;-81
2022/01/05 06:53:39;;;;;;;76.15;36.78;;;;;;;2.47;77.06;94633.69;5019501;28;20562;-81
2022/01/05 06:56:06;;;;;;;85.07;39.83;;;;;;;2.45;76.94;94630.50;5034328;28;20042;-82
2022/01/05 06:58:31;;;;;;;82.82;38.10;;;;;;;1.87;76.40;94498.22;5017072;28;20050;-82
2022/01/05 07:00:56;;;;;;;96.20;40.63;;;;;;;2.09;76.57;94529.69;5017951;28;20065;-82
2022/01/05 07:03:22;;;;;;;77.22;38.78;;;;;;;2.61;76.02;94628.94;5016048;28;20057;-82
2022/01/05 07:05:48;;;;;;;86.00;38.53;;;;;;;2.97;76.00;94636.34;5017756;28;20037;-82
2022/01/05 07:08:14;;;;;;;80.35;40.03;;;;;;;0.85;75.30;94303.34;5017307;28;20149;-82
2022/01/05 07:10:39;;;;;;;81.82;39.58;;;;;;;2.28;75.38;94512.75;5017493;28;20405;-82
2022/01/05 07:13:05;;;;;;;89.93;39.53;;;;;;;2.36;75.06;94516.81;5015287;28;20440;-81
2022/01/05 07:15:31;;;;;;;91.45;41.00;;;;;;;1.44;75.56;94383.00;5016394;28;20081;-82
2022/01/05 07:17:56;;;;;;;83.53;42.85;;;;;;;2.46;75.63;94531.84;5033497;28;20092;-82
2022/01/05 07:20:22;;;;;;;87.22;43.17;;;;;;;2.50;75.33;94509.41;5016944;28;20038;-82
2022/01/05 07:22:47;;;;;;;88.38;43.45;;;;;;;2.67;74.60;94531.13;5016088;28;20037;-83
2022/01/05 07:25:13;;;;;;;109.13;48.85;;;;;;;3.24;75.26;94628.59;5017511;28;20026;-82
2022/01/05 07:27:39;;;;;;;97.28;47.33;;;;;;;1.51;75.19;94347.06;5017369;28;20030;-83
2022/01/05 07:30:06;;;;;;;99.50;49.10;;;;;;;3.62;74.79;94646.16;5017739;28;20637;-82
2022/01/05 07:32:31;;;;;;;114.28;57.17;;;;;;;3.46;74.32;94644.34;5035909;28;20046;-82
2022/01/05 07:34:57;;;;;;;120.95;58.58;;;;;;;3.63;74.26;94645.13;5016439;28;20045;-82
2022/01/05 07:37:22;;;;;;;128.25;62.40;;;;;;;3.74;73.76;94652.06;5014615;28;20507;-82
2022/01/05 07:39:50;;;;;;;125.55;61.22;;;;;;;3.52;73.27;94609.31;5018013;28;20034;-81
2022/01/05 07:42:16;;;;;;;118.63;54.72;;;;;;;3.53;73.44;94631.88;5033079;28;20099;-82
2022/01/05 07:44:42;;;;;;;104.57;49.60;;;;;;;3.28;73.07;94589.63;5016481;28;20038;-81
2022/01/05 07:47:08;;;;;;;101.53;46.40;;;;;;;3.40;72.77;94600.78;5016157;28;20045;-82
2022/01/05 07:49:34;;;;;;;88.47;43.20;;;;;;;3.88;72.63;94645.44;5016518;28;20516;-80
2022/01/05 07:52:00;;;;;;;80.30;39.38;;;;;;;3.43;72.58;94602.91;5018134;28;20026;-81
2022/01/05 07:54:25;;;;;;;82.88;38.00;;;;;;;3.24;72.43;94560.47;5017163;28;20034;-82
2022/01/05 07:56:51;;;;;;;72.45;36.83;;;;;;;2.88;72.30;94517.28;5016692;28;20034;-81
2022/01/05 07:59:17;;;;;;;68.15;36.05;;;;;;;3.53;72.55;94624.00;5016120;28;20563;-81
2022/01/05 08:01:42;;;;;;;68.18;34.10;;;;;;;3.39;72.86;94615.69;5015676;28;20497;-82
2022/01/05 08:04:08;;;;;;;66.93;34.83;;;;;;;3.87;72.49;94650.94;5016996;28;20453;-81
2022/01/05 08:06:36;;;;;;;76.45;35.20;;;;;;;3.01;72.38;94505.66;5032365;28;20030;-81
2022/01/05 08:09:02;;;;;;;63.15;31.25;;;;;;;3.23;71.94;94534.50;5013523;28;20148;-82
2022/01/05 08:11:28;;;;;;;63.72;29.15;;;;;;;1.10;72.08;94235.91;5013409;28;20381;-81
2022/01/05 08:13:53;;;;;;;56.53;28.02;;;;;;;2.18;71.99;94407.94;5014440;28;20042;-81
2022/01/05 08:16:19;;;;;;;71.07;29.45;;;;;;;-0.70;71.60;93930.97;5014646;28;20033;-81
2022/01/05 08:18:45;;;;;;;62.50;29.52;;;;;;;-0.43;71.38;93966.59;5017210;28;20378;-82
2022/01/05 08:21:11;;;;;;;56.20;26.77;;;;;;;-0.25;71.43;94009.09;5016102;28;20036;-82
2022/01/05 08:23:37;;;;;;;52.67;26.25;;;;;;;1.25;71.41;94178.66;5018111;28;20054;-81
2022/01/05 08:26:06;;;;;;;54.50;24.58;;;;;;;3.88;71.59;94600.84;5021222;28;20108;-82
2022/01/05 08:28:32;;;;;;;50.75;24.45;;;;;;;-0.04;71.24;93979.75;5016625;28;20036;-82
2022/01/05 08:30:58;;;;;;;52.78;24.98;;;;;;;1.76;71.25;94253.31;5015276;28;20068;-82
2022/01/05 08:33:24;;;;;;;54.65;24.23;;;;;;;2.19;71.37;94361.66;5013981;28;20057;-82
2022/01/05 08:35:50;;;;;;;42.05;23.17;;;;;;;2.10;70.92;94280.19;5015582;28;20026;-81
2022/01/05 08:38:16;;;;;;;46.63;22.25;;;;;;;1.70;71.08;94233.38;5014938;28;20084;-81
2022/01/05 08:40:42;;;;;;;62.63;22.38;;;;;;;1.39;71.17;94166.84;5015172;28;20050;-82
2022/01/05 08:43:10;;;;;;;46.78;21.98;;;;;;;4.48;71.38;94620.06;5031075;28;20045;-81
2022/01/05 08:45:38;;;;;;;44.40;23.58;;;;;;;3.31;70.78;94421.38;5031319;28;20044;-82
2022/01/05 08:48:05;;;;;;;35.78;20.13;;;;;;;4.35;70.46;94625.75;5014717;28;20036;-82
2022/01/05 08:50:33;;;;;;;44.67;18.75;;;;;;;4.62;71.03;94647.50;5016113;28;20038;-82
2022/01/05 08:53:00;;;;;;;39.63;19.92;;;;;;;3.66;70.20;94476.78;5013582;28;20038;-81
2022/01/05 08:55:31;;;;;;;38.45;18.73;;;;;;;4.12;69.88;94535.72;5015275;28;20026;-82
2022/01/05 08:57:57;;;;;;;40.38;18.83;;;;;;;4.00;69.94;94524.59;5014327;28;20449;-83
2022/01/05 09:00:22;;;;;;;44.58;19.33;;;;;;;4.05;70.38;94531.72;5016413;28;20034;-82
2022/01/05 09:02:53;;;;;;;43.53;18.63;;;;;;;3.79;70.72;94489.53;5016960;28;20124;-82
2022/01/05 09:05:19;;;;;;;35.25;18.45;;;;;;;4.89;70.26;94636.97;5017368;28;20026;-82
2022/01/05 09:07:44;;;;;;;42.38;19.30;;;;;;;4.69;69.59;94587.69;5018730;28;20579;-82
2022/01/05 09:10:10;;;;;;;43.47;19.10;;;;;;;3.54;69.79;94373.91;5016949;28;20038;-80
2022/01/05 09:12:36;;;;;;;39.33;18.45;;;;;;;4.39;69.32;94519.97;5018791;28;20045;-81
2022/01/05 09:15:03;;;;;;;33.92;15.38;;;;;;;4.68;69.60;94564.28;5016554;28;20444;-82
2022/01/05 09:17:29;;;;;;;43.17;16.60;;;;;;;4.78;69.48;94561.75;5018440;28;20033;-81
2022/01/05 09:19:55;;;;;;;37.50;16.73;;;;;;;2.82;68.88;94245.94;5018614;28;20038;-81
2022/01/05 09:22:21;;;;;;;36.20;18.02;;;;;;;4.71;68.64;94535.72;5033592;28;20048;-81
2022/01/05 09:24:47;;;;;;;42.80;18.45;;;;;;;4.52;69.01;94489.84;5014448;28;20030;-81
2022/01/05 09:27:13;;;;;;;36.47;19.50;;;;;;;4.71;69.71;94548.03;5016548;28;20038;-81
2022/01/05 09:29:40;;;;;;;40.53;20.23;;;;;;;2.51;69.11;94182.03;5015529;28;20030;-81
2022/01/05 09:32:08;;;;;;;42.80;19.10;;;;;;;5.41;68.58;94597.66;5021500;28;20038;-82
2022/01/05 09:34:39;;;;;;;42.65;21.13;;;;;;;5.47;68.24;94640.53;5019203;28;20046;-85
2022/01/05 09:37:12;;;;;;;57.10;22.50;;;;;;;2.13;68.55;94106.28;5026694;28;20038;-85
2022/01/05 09:42:23;;;;;;;32.70;16.85;;;;;;;1.96;68.59;94012.25;5028288;28;20041;-85
2022/01/05 09:44:52;;;;;;;30.27;16.27;;;;;;;3.27;68.50;94235.06;5021469;28;20026;-85
2022/01/05 09:47:34;;;;;;;34.35;14.75;;;;;;;3.42;68.22;94195.06;5022502;28;20041;-84
2022/01/05 09:50:06;;;;;;;22.58;13.00;;;;;;;1.46;67.70;93866.22;5030220;28;20060;-84
2022/01/05 09:52:34;;;;;;;25.98;13.38;;;;;;;5.99;68.05;94564.22;5024169;28;20057;-85
2022/01/05 09:55:02;;;;;;;28.80;13.88;;;;;;;6.15;67.49;94566.63;5037963;28;20018;-82
2022/01/05 09:57:27;;;;;;;36.75;15.13;;;;;;;6.14;67.87;94553.72;5037918;28;20038;-81
2022/01/05 09:59:55;;;;;;;30.17;12.90;;;;;;;2.92;66.94;94073.16;5021142;28;20033;-81
2022/01/05 10:02:21;;;;;;;31.05;14.95;;;;;;;3.06;66.58;94052.53;5022556;28;20477;-81
2022/01/05 10:04:46;;;;;;;26.40;12.43;;;;;;;4.94;66.42;94345.38;5021271;28;20114;-81
2022/01/05 10:07:13;;;;;;;28.98;14.07;;;;;;;5.57;67.08;94417.03;5020849;28;20091;-82
2022/01/05 10:09:40;;;;;;;30.63;14.30;;;;;;;5.20;66.46;94368.03;5020181;28;20049;-82
2022/01/05 10:12:07;;;;;;;28.02;13.55;;;;;;;5.61;67.18;94410.19;5021164;28;20029;-83
2022/01/05 10:14:32;;;;;;;26.30;13.10;;;;;;;6.00;66.44;94456.06;5020596;28;20030;-81
2022/01/05 10:17:15;;;;;;;30.77;16.00;;;;;;;5.88;66.07;94425.75;5019859;28;20048;-84
2022/01/05 10:19:42;;;;;;;34.60;16.05;;;;;;;6.66;67.50;94537.69;5020139;28;20517;-83
2022/01/05 10:22:38;;;;;;;33.50;16.98;;;;;;;7.19;65.89;94525.75;5017972;28;20125;-84
2022/01/05 10:25:26;;;;;;;33.28;15.00;;;;;;;7.65;64.45;94459.63;5014135;28;20129;-84
2022/01/05 10:27:56;;;;;;;30.30;12.77;;;;;;;8.89;60.62;94483.84;5017666;28;20049;-83
2022/01/05 10:30:32;;;;;;;24.77;13.77;;;;;;;9.48;58.78;94427.09;5017399;28;20497;-84
2022/01/05 10:32:58;;;;;;;34.35;15.60;;;;;;;8.59;55.59;94157.19;5017882;28;20038;-84
2022/01/05 10:35:27;;;;;;;38.55;17.27;;;;;;;9.85;54.52;94313.25;5022376;28;20041;-86
2022/01/05 10:38:13;;;;;;;38.72;16.63;;;;;;;10.71;53.01;94374.63;5021377;28;20029;-84
2022/01/05 10:40:43;;;;;;;34.22;18.48;;;;;;;10.34;51.60;94272.19;5026614;28;20097;-86
2022/01/05 10:43:11;;;;;;;37.72;18.00;;;;;;;11.76;49.74;94487.81;5026369;28;20064;-86
2022/01/05 10:45:42;;;;;;;36.42;16.20;;;;;;;11.56;49.30;94405.88;5024075;28;20030;-86
2022/01/05 10:48:10;;;;;;;31.42;17.13;;;;;;;12.27;48.74;94484.06;5023857;28;20405;-84
2022/01/05 10:50:37;;;;;;;28.98;15.57;;;;;;;12.02;49.42;94402.25;5023516;28;20065;-86
2022/01/05 10:53:04;;;;;;;30.23;15.23;;;;;;;12.26;49.73;94432.78;5022605;28;20037;-84
2022/01/05 10:55:39;;;;;;;30.00;12.60;;;;;;;12.25;47.89;94407.28;5019554;28;20034;-84
2022/01/05 10:58:10;;;;;;;39.83;14.23;;;;;;;12.44;47.99;94390.31;5019593;28;20117;-84
2022/01/05 11:00:46;;;;;;;31.58;13.85;;;;;;;13.24;47.90;94474.53;5020567;28;20033;-85
2022/01/05 11:03:35;;;;;;;26.98;13.48;;;;;;;13.28;46.57;94470.16;5018098;28;20509;-84
2022/01/05 11:06:15;;;;;;;23.02;13.98;;;;;;;11.70;48.48;94288.97;5023231;28;20084;-85
2022/01/05 11:09:00;;;;;;;25.48;13.38;;;;;;;12.72;47.64;94426.34;5026412;28;20045;-86
2022/01/05 11:11:47;;;;;;;35.00;15.10;;;;;;;13.05;47.48;94438.25;5023331;28;20036;-86
2022/01/05 11:14:19;;;;;;;24.33;12.32;;;;;;;12.75;46.91;94369.84;5045718;28;20073;-86
2022/01/05 11:16:48;;;;;;;26.17;11.82;;;;;;;12.62;47.48;94384.81;5023593;28;20074;-85
2022/01/05 11:19:30;;;;;;;25.90;12.73;;;;;;;13.03;47.75;94450.31;5021432;28;20030;-85
2022/01/05 11:22:14;;;;;;;31.92;13.85;;;;;;;12.26;48.17;94387.56;5020676;28;20048;-85
2022/01/05 11:24:54;;;;;;;32.58;14.40;;;;;;;12.44;48.11;94446.97;5017429;28;20033;-86
2022/01/05 11:27:28;;;;;;;26.92;13.70;;;;;;;11.75;48.36;94294.97;5020505;28;20223;-87